sensor_id;sensor_type;location;lat;lon;timestamp;temperature;humidity
11188;DHT22;5650;52.700;7.306;2023-07-20T00:00:39;17.10;99.90
11188;DHT22;5650;52.700;7.306;2023-07-20T00:03:14;17.00;99.90
11188;DHT22;5650;52.700;7.306;2023-07-20T00:05:46;17.00;99.90
11188;DHT22;5650;52.700;7.306;2023-07-20T00:08:13;17.00;99.90
11188;DHT22;5650;52.700;7.306;2023-07-20T00:10:41;17.00;99.90
11188;DHT22;5650;52.700;7.306;2023-07-20T00:13:11;17.00;99.90
11188;DHT22;5650;52.700;7.306;2023-07-20T00:15:39;16.90;99.90
11188;DHT22;5650;52.700;7.306;2023-07-20T00:18:09;16.80;99.90
11188;DHT22;5650;52.700;7.306;2023-07-20T00:20:37;16.70;99.90
11188;DHT22;5650;52.700;7.306;2023-07-20T00:23:11;16.70;99.90
11188;DHT22;5650;52.700;7.306;2023-07-20T00:25:38;16.60;99.90
11188;DHT22;5650;52.700;7.306;2023-07-20T00:28:08;16.60;99.90
11188;DHT22;5650;52.700;7.306;2023-07-20T00:30:38;16.60;99.90
11188;DHT22;5650;52.700;7.306;2023-07-20T00:33:09;16.60;99.90
11188;DHT22;5650;52.700;7.306;2023-07-20T00:35:40;16.60;99.90
11188;DHT22;5650;52.700;7.306;2023-07-20T00:38:07;16.60;99.90
11188;DHT22;5650;52.700;7.306;2023-07-20T00:40:45;16.60;99.90
11188;DHT22;5650;52.700;7.306;2023-07-20T00:43:12;16.50;99.90
11188;DHT22;5650;52.700;7.306;2023-07-20T00:45:45;16.50;99.90
11188;DHT22;5650;52.700;7.306;2023-07-20T00:48:14;16.50;99.90
11188;DHT22;5650;52.700;7.306;2023-07-20T00:50:42;16.50;99.90
11188;DHT22;5650;52.700;7.306;2023-07-20T00:53:18;16.50;99.90
11188;DHT22;5650;52.700;7.306;2023-07-20T00:55:47;16.50;99.90
11188;DHT22;5650;52.700;7.306;2023-07-20T00:58:15;16.50;99.90
11188;DHT22;5650;52.700;7.306;2023-07-20T01:00:42;16.50;99.90
11188;DHT22;5650;52.700;7.306;2023-07-20T01:03:09;16.50;99.90
11188;DHT22;5650;52.700;7.306;2023-07-20T01:05:42;16.50;99.90
11188;DHT22;5650;52.700;7.306;2023-07-20T01:08:17;16.40;99.90
11188;DHT22;5650;52.700;7.306;2023-07-20T01:10:53;16.40;99.90
11188;DHT22;5650;52.700;7.306;2023-07-20T01:13:29;16.30;99.90
11188;DHT22;5650;52.700;7.306;2023-07-20T01:15:57;16.30;99.90
11188;DHT22;5650;52.700;7.306;2023-07-20T01:18:25;16.30;99.90
11188;DHT22;5650;52.700;7.306;2023-07-20T01:21:01;16.30;99.90
11188;DHT22;5650;52.700;7.306;2023-07-20T01:24:02;16.30;99.90
11188;DHT22;5650;52.700;7.306;2023-07-20T01:27:05;16.20;99.90
11188;DHT22;5650;52.700;7.306;2023-07-20T01:29:55;16.20;99.90
11188;DHT22;5650;52.700;7.306;2023-07-20T01:32:29;16.20;99.90
11188;DHT22;5650;52.700;7.306;2023-07-20T01:34:58;16.20;99.90
11188;DHT22;5650;52.700;7.306;2023-07-20T01:37:47;16.20;99.90
11188;DHT22;5650;52.700;7.306;2023-07-20T01:40:15;16.20;99.90
11188;DHT22;5650;52.700;7.306;2023-07-20T01:42:46;16.20;99.90
11188;DHT22;5650;52.700;7.306;2023-07-20T01:45:14;16.20;99.90
11188;DHT22;5650;52.700;7.306;2023-07-20T01:47:46;16.30;99.90
11188;DHT22;5650;52.700;7.306;2023-07-20T01:50:13;16.30;99.90
11188;DHT22;5650;52.700;7.306;2023-07-20T01:52:40;16.30;99.90
11188;DHT22;5650;52.700;7.306;2023-07-20T01:55:08;16.30;99.90
11188;DHT22;5650;52.700;7.306;2023-07-20T01:57:44;16.30;99.90
11188;DHT22;5650;52.700;7.306;2023-07-20T02:00:14;16.30;99.90
11188;DHT22;5650;52.700;7.306;2023-07-20T02:02:41;16.30;99.90
11188;DHT22;5650;52.700;7.306;2023-07-20T02:05:11;16.30;99.90
11188;DHT22;5650;52.700;7.306;2023-07-20T02:07:38;16.30;99.90
11188;DHT22;5650;52.700;7.306;2023-07-20T02:10:09;16.30;99.90
11188;DHT22;5650;52.700;7.306;2023-07-20T02:12:39;16.20;99.90
11188;DHT22;5650;52.700;7.306;2023-07-20T02:15:07;16.20;99.90
11188;DHT22;5650;52.700;7.306;2023-07-20T02:17:41;16.20;99.90
11188;DHT22;5650;52.700;7.306;2023-07-20T02:20:12;16.10;99.90
11188;DHT22;5650;52.700;7.306;2023-07-20T02:22:45;16.10;99.90
11188;DHT22;5650;52.700;7.306;2023-07-20T02:25:15;16.10;99.90
11188;DHT22;5650;52.700;7.306;2023-07-20T02:27:46;16.10;99.90
11188;DHT22;5650;52.700;7.306;2023-07-20T02:30:13;16.10;99.90
11188;DHT22;5650;52.700;7.306;2023-07-20T02:32:41;16.10;99.90
11188;DHT22;5650;52.700;7.306;2023-07-20T02:35:15;16.00;99.90
11188;DHT22;5650;52.700;7.306;2023-07-20T02:37:57;16.00;99.90
11188;DHT22;5650;52.700;7.306;2023-07-20T02:40:24;16.00;99.90
11188;DHT22;5650;52.700;7.306;2023-07-20T02:42:53;16.00;99.90
11188;DHT22;5650;52.700;7.306;2023-07-20T02:45:20;16.00;99.90
11188;DHT22;5650;52.700;7.306;2023-07-20T02:47:50;16.00;99.90
11188;DHT22;5650;52.700;7.306;2023-07-20T02:50:27;16.00;99.90
11188;DHT22;5650;52.700;7.306;2023-07-20T02:52:58;16.00;99.90
11188;DHT22;5650;52.700;7.306;2023-07-20T02:55:25;16.00;99.90
11188;DHT22;5650;52.700;7.306;2023-07-20T02:57:52;16.00;99.90
11188;DHT22;5650;52.700;7.306;2023-07-20T03:00:25;16.00;99.90
11188;DHT22;5650;52.700;7.306;2023-07-20T03:03:05;16.00;99.90
11188;DHT22;5650;52.700;7.306;2023-07-20T03:05:36;15.90;99.90
11188;DHT22;5650;52.700;7.306;2023-07-20T03:08:05;15.90;99.90
11188;DHT22;5650;52.700;7.306;2023-07-20T03:10:32;15.90;99.90
11188;DHT22;5650;52.700;7.306;2023-07-20T03:13:02;15.80;99.90
11188;DHT22;5650;52.700;7.306;2023-07-20T03:15:29;15.70;99.90
11188;DHT22;5650;52.700;7.306;2023-07-20T03:18:02;15.70;99.90
11188;DHT22;5650;52.700;7.306;2023-07-20T03:20:30;15.60;99.90
11188;DHT22;5650;52.700;7.306;2023-07-20T03:23:08;15.60;99.90
11188;DHT22;5650;52.700;7.306;2023-07-20T03:25:35;15.50;99.90
11188;DHT22;5650;52.700;7.306;2023-07-20T03:28:04;15.50;99.90
11188;DHT22;5650;52.700;7.306;2023-07-20T03:30:41;15.40;99.90
11188;DHT22;5650;52.700;7.306;2023-07-20T03:33:08;15.40;99.90
11188;DHT22;5650;52.700;7.306;2023-07-20T03:35:35;15.40;99.90
11188;DHT22;5650;52.700;7.306;2023-07-20T03:38:15;15.40;99.90
11188;DHT22;5650;52.700;7.306;2023-07-20T03:40:49;15.30;99.90
11188;DHT22;5650;52.700;7.306;2023-07-20T03:43:23;15.30;99.90
11188;DHT22;5650;52.700;7.306;2023-07-20T03:45:50;15.20;99.90
11188;DHT22;5650;52.700;7.306;2023-07-20T03:48:19;15.20;99.90
11188;DHT22;5650;52.700;7.306;2023-07-20T03:50:48;15.20;99.90
11188;DHT22;5650;52.700;7.306;2023-07-20T03:53:17;15.20;99.90
11188;DHT22;5650;52.700;7.306;2023-07-20T03:55:45;15.20;99.90
11188;DHT22;5650;52.700;7.306;2023-07-20T03:58:13;15.10;99.90
11188;DHT22;5650;52.700;7.306;2023-07-20T04:00:47;15.10;99.90
11188;DHT22;5650;52.700;7.306;2023-07-20T04:03:16;15.10;99.90
11188;DHT22;5650;52.700;7.306;2023-07-20T04:05:43;15.10;99.90
11188;DHT22;5650;52.700;7.306;2023-07-20T04:08:10;15.10;99.90
11188;DHT22;5650;52.700;7.306;2023-07-20T04:10:42;15.40;99.90
11188;DHT22;5650;52.700;7.306;2023-07-20T04:13:12;15.70;99.90
11188;DHT22;5650;52.700;7.306;2023-07-20T04:15:43;16.20;99.90
11188;DHT22;5650;52.700;7.306;2023-07-20T04:18:10;16.70;99.90
11188;DHT22;5650;52.700;7.306;2023-07-20T04:20:37;17.00;99.90
11188;DHT22;5650;52.700;7.306;2023-07-20T04:23:04;17.40;99.90
11188;DHT22;5650;52.700;7.306;2023-07-20T04:25:35;17.80;99.90
11188;DHT22;5650;52.700;7.306;2023-07-20T04:28:07;18.20;99.90
11188;DHT22;5650;52.700;7.306;2023-07-20T04:30:39;18.40;99.90
11188;DHT22;5650;52.700;7.306;2023-07-20T04:33:06;18.40;99.90
11188;DHT22;5650;52.700;7.306;2023-07-20T04:35:55;18.40;99.90
11188;DHT22;5650;52.700;7.306;2023-07-20T04:38:26;18.20;99.90
11188;DHT22;5650;52.700;7.306;2023-07-20T04:40:54;18.00;99.90
11188;DHT22;5650;52.700;7.306;2023-07-20T04:43:25;17.70;99.90
11188;DHT22;5650;52.700;7.306;2023-07-20T04:45:53;17.50;99.90
11188;DHT22;5650;52.700;7.306;2023-07-20T04:48:20;17.30;99.90
11188;DHT22;5650;52.700;7.306;2023-07-20T04:50:47;17.10;99.90
11188;DHT22;5650;52.700;7.306;2023-07-20T04:53:17;16.90;99.90
11188;DHT22;5650;52.700;7.306;2023-07-20T04:55:49;16.70;99.90
11188;DHT22;5650;52.700;7.306;2023-07-20T04:58:21;16.60;99.90
11188;DHT22;5650;52.700;7.306;2023-07-20T05:01:08;16.60;99.90
11188;DHT22;5650;52.700;7.306;2023-07-20T05:03:44;16.40;99.90
11188;DHT22;5650;52.700;7.306;2023-07-20T05:06:12;16.40;99.90
11188;DHT22;5650;52.700;7.306;2023-07-20T05:08:39;16.40;99.90
11188;DHT22;5650;52.700;7.306;2023-07-20T05:11:06;16.30;99.90
11188;DHT22;5650;52.700;7.306;2023-07-20T05:13:34;16.40;99.90
11188;DHT22;5650;52.700;7.306;2023-07-20T05:16:01;16.30;99.90
11188;DHT22;5650;52.700;7.306;2023-07-20T05:18:30;16.30;99.90
11188;DHT22;5650;52.700;7.306;2023-07-20T05:20:59;16.20;99.90
11188;DHT22;5650;52.700;7.306;2023-07-20T05:23:29;16.10;99.90
11188;DHT22;5650;52.700;7.306;2023-07-20T05:25:57;16.10;99.90
11188;DHT22;5650;52.700;7.306;2023-07-20T05:28:25;16.50;99.90
11188;DHT22;5650;52.700;7.306;2023-07-20T05:30:52;16.80;99.90
11188;DHT22;5650;52.700;7.306;2023-07-20T05:33:19;17.00;99.90
11188;DHT22;5650;52.700;7.306;2023-07-20T05:35:48;17.40;99.90
11188;DHT22;5650;52.700;7.306;2023-07-20T05:38:15;18.10;99.90
11188;DHT22;5650;52.700;7.306;2023-07-20T05:40:45;18.70;99.90
11188;DHT22;5650;52.700;7.306;2023-07-20T05:43:15;19.30;99.90
11188;DHT22;5650;52.700;7.306;2023-07-20T05:45:42;19.90;99.90
11188;DHT22;5650;52.700;7.306;2023-07-20T05:48:10;20.60;99.90
11188;DHT22;5650;52.700;7.306;2023-07-20T05:50:41;21.20;99.90
11188;DHT22;5650;52.700;7.306;2023-07-20T05:53:10;21.40;99.90
11188;DHT22;5650;52.700;7.306;2023-07-20T05:55:40;21.70;99.90
11188;DHT22;5650;52.700;7.306;2023-07-20T05:58:28;21.80;99.90
11188;DHT22;5650;52.700;7.306;2023-07-20T06:01:01;22.20;99.90
11188;DHT22;5650;52.700;7.306;2023-07-20T06:03:34;22.60;99.90
11188;DHT22;5650;52.700;7.306;2023-07-20T06:06:06;23.20;99.90
11188;DHT22;5650;52.700;7.306;2023-07-20T06:08:36;23.70;99.90
11188;DHT22;5650;52.700;7.306;2023-07-20T06:11:11;24.10;99.90
11188;DHT22;5650;52.700;7.306;2023-07-20T06:13:38;24.60;99.90
11188;DHT22;5650;52.700;7.306;2023-07-20T06:16:12;25.00;99.10
11188;DHT22;5650;52.700;7.306;2023-07-20T06:18:51;25.30;99.70
11188;DHT22;5650;52.700;7.306;2023-07-20T06:21:19;25.70;99.30
11188;DHT22;5650;52.700;7.306;2023-07-20T06:23:48;26.10;98.30
11188;DHT22;5650;52.700;7.306;2023-07-20T06:26:15;26.10;96.70
11188;DHT22;5650;52.700;7.306;2023-07-20T06:28:42;26.40;96.50
11188;DHT22;5650;52.700;7.306;2023-07-20T06:31:13;26.50;94.40
11188;DHT22;5650;52.700;7.306;2023-07-20T06:33:40;26.00;95.20
11188;DHT22;5650;52.700;7.306;2023-07-20T06:36:10;26.10;95.30
11188;DHT22;5650;52.700;7.306;2023-07-20T06:38:37;26.00;95.50
11188;DHT22;5650;52.700;7.306;2023-07-20T06:41:10;26.10;95.20
11188;DHT22;5650;52.700;7.306;2023-07-20T06:43:45;26.20;94.50
11188;DHT22;5650;52.700;7.306;2023-07-20T06:46:14;26.50;93.70
11188;DHT22;5650;52.700;7.306;2023-07-20T06:48:44;26.60;93.80
11188;DHT22;5650;52.700;7.306;2023-07-20T06:51:13;26.60;92.50
11188;DHT22;5650;52.700;7.306;2023-07-20T06:53:44;26.60;92.50
11188;DHT22;5650;52.700;7.306;2023-07-20T06:56:13;26.50;91.50
11188;DHT22;5650;52.700;7.306;2023-07-20T06:58:43;26.50;91.80
11188;DHT22;5650;52.700;7.306;2023-07-20T07:01:11;26.70;92.30
11188;DHT22;5650;52.700;7.306;2023-07-20T07:03:38;26.70;91.70
11188;DHT22;5650;52.700;7.306;2023-07-20T07:06:08;26.70;91.50
11188;DHT22;5650;52.700;7.306;2023-07-20T07:08:39;26.40;90.50
11188;DHT22;5650;52.700;7.306;2023-07-20T07:11:08;26.40;91.50
11188;DHT22;5650;52.700;7.306;2023-07-20T07:13:39;26.10;90.90
11188;DHT22;5650;52.700;7.306;2023-07-20T07:16:15;25.70;91.10
11188;DHT22;5650;52.700;7.306;2023-07-20T07:18:47;25.40;92.30
11188;DHT22;5650;52.700;7.306;2023-07-20T07:21:20;25.40;91.90
11188;DHT22;5650;52.700;7.306;2023-07-20T07:23:50;25.70;92.60
11188;DHT22;5650;52.700;7.306;2023-07-20T07:26:26;26.10;91.70
11188;DHT22;5650;52.700;7.306;2023-07-20T07:28:54;26.20;90.90
11188;DHT22;5650;52.700;7.306;2023-07-20T07:31:29;26.00;90.70
11188;DHT22;5650;52.700;7.306;2023-07-20T07:33:56;25.50;90.80
11188;DHT22;5650;52.700;7.306;2023-07-20T07:36:31;25.30;92.10
11188;DHT22;5650;52.700;7.306;2023-07-20T07:39:01;25.00;91.60
11188;DHT22;5650;52.700;7.306;2023-07-20T07:41:29;24.80;93.10
11188;DHT22;5650;52.700;7.306;2023-07-20T07:44:03;25.20;92.00
11188;DHT22;5650;52.700;7.306;2023-07-20T07:46:30;25.30;91.80
11188;DHT22;5650;52.700;7.306;2023-07-20T07:48:57;25.50;92.30
11188;DHT22;5650;52.700;7.306;2023-07-20T07:51:24;25.70;90.20
11188;DHT22;5650;52.700;7.306;2023-07-20T07:53:52;25.70;90.30
11188;DHT22;5650;52.700;7.306;2023-07-20T07:56:20;25.70;90.40
11188;DHT22;5650;52.700;7.306;2023-07-20T08:01:31;25.60;90.10
11188;DHT22;5650;52.700;7.306;2023-07-20T08:04:00;24.60;91.00
11188;DHT22;5650;52.700;7.306;2023-07-20T08:06:32;23.80;92.40
11188;DHT22;5650;52.700;7.306;2023-07-20T08:08:59;23.50;93.30
11188;DHT22;5650;52.700;7.306;2023-07-20T08:11:27;23.80;93.20
11188;DHT22;5650;52.700;7.306;2023-07-20T08:13:56;24.30;92.80
11188;DHT22;5650;52.700;7.306;2023-07-20T08:16:23;24.60;91.40
11188;DHT22;5650;52.700;7.306;2023-07-20T08:18:52;24.80;90.50
11188;DHT22;5650;52.700;7.306;2023-07-20T08:21:19;24.70;90.00
11188;DHT22;5650;52.700;7.306;2023-07-20T08:23:46;24.70;91.00
11188;DHT22;5650;52.700;7.306;2023-07-20T08:26:13;24.80;90.90
11188;DHT22;5650;52.700;7.306;2023-07-20T08:28:40;24.70;91.00
11188;DHT22;5650;52.700;7.306;2023-07-20T08:31:07;24.40;91.80
11188;DHT22;5650;52.700;7.306;2023-07-20T08:33:34;23.90;92.50
11188;DHT22;5650;52.700;7.306;2023-07-20T08:36:03;23.60;93.70
11188;DHT22;5650;52.700;7.306;2023-07-20T08:38:31;23.60;93.40
11188;DHT22;5650;52.700;7.306;2023-07-20T08:40:58;23.60;92.60
11188;DHT22;5650;52.700;7.306;2023-07-20T08:43:30;23.60;93.20
11188;DHT22;5650;52.700;7.306;2023-07-20T08:45:58;23.60;93.20
11188;DHT22;5650;52.700;7.306;2023-07-20T08:48:27;23.60;92.80
11188;DHT22;5650;52.700;7.306;2023-07-20T08:50:55;23.60;92.10
11188;DHT22;5650;52.700;7.306;2023-07-20T08:53:24;23.70;92.60
11188;DHT22;5650;52.700;7.306;2023-07-20T08:55:51;23.80;91.40
11188;DHT22;5650;52.700;7.306;2023-07-20T08:58:19;23.90;92.00
11188;DHT22;5650;52.700;7.306;2023-07-20T09:00:47;24.20;91.80
11188;DHT22;5650;52.700;7.306;2023-07-20T09:03:19;24.00;90.70
11188;DHT22;5650;52.700;7.306;2023-07-20T09:05:46;23.60;90.60
11188;DHT22;5650;52.700;7.306;2023-07-20T09:08:14;23.10;91.20
11188;DHT22;5650;52.700;7.306;2023-07-20T09:10:43;22.80;92.50
11188;DHT22;5650;52.700;7.306;2023-07-20T09:13:14;22.90;92.20
11188;DHT22;5650;52.700;7.306;2023-07-20T09:15:46;23.30;91.60
11188;DHT22;5650;52.700;7.306;2023-07-20T09:18:23;23.60;91.70
11188;DHT22;5650;52.700;7.306;2023-07-20T09:20:51;24.20;91.20
11188;DHT22;5650;52.700;7.306;2023-07-20T09:23:18;24.50;90.70
11188;DHT22;5650;52.700;7.306;2023-07-20T09:25:47;24.50;88.80
11188;DHT22;5650;52.700;7.306;2023-07-20T09:28:16;24.20;89.20
11188;DHT22;5650;52.700;7.306;2023-07-20T09:30:44;23.90;89.40
11188;DHT22;5650;52.700;7.306;2023-07-20T09:33:18;23.70;89.30
11188;DHT22;5650;52.700;7.306;2023-07-20T09:35:46;23.50;90.20
11188;DHT22;5650;52.700;7.306;2023-07-20T09:38:14;23.40;90.60
11188;DHT22;5650;52.700;7.306;2023-07-20T09:40:42;23.20;90.40
11188;DHT22;5650;52.700;7.306;2023-07-20T09:43:11;23.10;89.80
11188;DHT22;5650;52.700;7.306;2023-07-20T09:45:40;23.10;90.20
11188;DHT22;5650;52.700;7.306;2023-07-20T09:48:09;23.00;89.80
11188;DHT22;5650;52.700;7.306;2023-07-20T09:50:40;23.00;90.10
11188;DHT22;5650;52.700;7.306;2023-07-20T09:53:11;22.90;90.30
11188;DHT22;5650;52.700;7.306;2023-07-20T09:55:40;23.00;90.80
11188;DHT22;5650;52.700;7.306;2023-07-20T09:58:10;23.00;91.10
11188;DHT22;5650;52.700;7.306;2023-07-20T10:00:39;22.90;90.10
11188;DHT22;5650;52.700;7.306;2023-07-20T10:03:07;23.00;90.30
11188;DHT22;5650;52.700;7.306;2023-07-20T10:05:36;22.90;90.30
11188;DHT22;5650;52.700;7.306;2023-07-20T10:08:10;22.80;90.60
11188;DHT22;5650;52.700;7.306;2023-07-20T10:10:40;22.70;91.10
11188;DHT22;5650;52.700;7.306;2023-07-20T10:13:16;22.50;90.30
11188;DHT22;5650;52.700;7.306;2023-07-20T10:15:47;22.10;90.20
11188;DHT22;5650;52.700;7.306;2023-07-20T10:18:22;22.10;90.50
11188;DHT22;5650;52.700;7.306;2023-07-20T10:20:54;22.20;90.80
11188;DHT22;5650;52.700;7.306;2023-07-20T10:23:22;22.40;90.60
11188;DHT22;5650;52.700;7.306;2023-07-20T10:25:50;22.60;90.10
11188;DHT22;5650;52.700;7.306;2023-07-20T10:28:19;22.80;90.20
11188;DHT22;5650;52.700;7.306;2023-07-20T10:30:49;22.90;89.60
11188;DHT22;5650;52.700;7.306;2023-07-20T10:33:17;22.80;89.40
11188;DHT22;5650;52.700;7.306;2023-07-20T10:35:52;22.80;89.30
11188;DHT22;5650;52.700;7.306;2023-07-20T10:38:19;22.90;88.20
11188;DHT22;5650;52.700;7.306;2023-07-20T10:40:54;23.00;86.60
11188;DHT22;5650;52.700;7.306;2023-07-20T10:43:23;22.70;84.20
11188;DHT22;5650;52.700;7.306;2023-07-20T10:45:52;22.60;87.50
11188;DHT22;5650;52.700;7.306;2023-07-20T10:48:21;22.50;90.00
11188;DHT22;5650;52.700;7.306;2023-07-20T10:51:09;22.50;89.10
11188;DHT22;5650;52.700;7.306;2023-07-20T10:53:37;22.50;89.20
11188;DHT22;5650;52.700;7.306;2023-07-20T10:56:08;22.50;89.40
11188;DHT22;5650;52.700;7.306;2023-07-20T10:58:39;22.60;88.90
11188;DHT22;5650;52.700;7.306;2023-07-20T11:01:07;22.70;88.50
11188;DHT22;5650;52.700;7.306;2023-07-20T11:03:35;22.90;88.20
11188;DHT22;5650;52.700;7.306;2023-07-20T11:09:09;23.10;88.10
11188;DHT22;5650;52.700;7.306;2023-07-20T11:11:40;23.10;88.80
11188;DHT22;5650;52.700;7.306;2023-07-20T11:14:10;23.10;87.30
11188;DHT22;5650;52.700;7.306;2023-07-20T11:16:47;23.20;88.30
11188;DHT22;5650;52.700;7.306;2023-07-20T11:19:17;23.20;88.40
11188;DHT22;5650;52.700;7.306;2023-07-20T11:21:46;23.20;87.90
11188;DHT22;5650;52.700;7.306;2023-07-20T11:24:13;23.20;87.50
11188;DHT22;5650;52.700;7.306;2023-07-20T11:26:45;23.30;87.20
11188;DHT22;5650;52.700;7.306;2023-07-20T11:29:15;23.40;88.00
11188;DHT22;5650;52.700;7.306;2023-07-20T11:31:44;23.40;88.40
11188;DHT22;5650;52.700;7.306;2023-07-20T11:34:12;23.40;88.50
11188;DHT22;5650;52.700;7.306;2023-07-20T11:36:41;23.50;89.70
11188;DHT22;5650;52.700;7.306;2023-07-20T11:39:09;23.50;89.70
11188;DHT22;5650;52.700;7.306;2023-07-20T11:41:36;23.50;89.80
11188;DHT22;5650;52.700;7.306;2023-07-20T11:44:05;23.40;89.50
11188;DHT22;5650;52.700;7.306;2023-07-20T11:46:35;23.30;89.80
11188;DHT22;5650;52.700;7.306;2023-07-20T11:49:02;23.20;90.20
11188;DHT22;5650;52.700;7.306;2023-07-20T11:51:30;23.20;90.60
11188;DHT22;5650;52.700;7.306;2023-07-20T11:53:58;23.20;91.40
11188;DHT22;5650;52.700;7.306;2023-07-20T11:56:26;23.10;92.20
11188;DHT22;5650;52.700;7.306;2023-07-20T11:58:55;23.10;92.40
11188;DHT22;5650;52.700;7.306;2023-07-20T12:01:25;23.20;92.80
11188;DHT22;5650;52.700;7.306;2023-07-20T12:03:56;23.10;93.10
11188;DHT22;5650;52.700;7.306;2023-07-20T12:06:24;23.10;93.40
11188;DHT22;5650;52.700;7.306;2023-07-20T12:08:55;23.00;93.20
11188;DHT22;5650;52.700;7.306;2023-07-20T12:11:36;23.00;93.60
11188;DHT22;5650;52.700;7.306;2023-07-20T12:14:04;23.00;94.30
11188;DHT22;5650;52.700;7.306;2023-07-20T12:16:34;23.00;95.10
11188;DHT22;5650;52.700;7.306;2023-07-20T12:19:05;22.90;95.60
11188;DHT22;5650;52.700;7.306;2023-07-20T12:21:34;22.70;95.70
11188;DHT22;5650;52.700;7.306;2023-07-20T12:24:03;22.60;96.30
11188;DHT22;5650;52.700;7.306;2023-07-20T12:26:31;22.60;96.80
11188;DHT22;5650;52.700;7.306;2023-07-20T12:28:59;22.60;96.90
11188;DHT22;5650;52.700;7.306;2023-07-20T12:31:27;22.50;97.40
11188;DHT22;5650;52.700;7.306;2023-07-20T12:33:56;22.40;98.20
11188;DHT22;5650;52.700;7.306;2023-07-20T12:36:25;22.50;98.40
11188;DHT22;5650;52.700;7.306;2023-07-20T12:38:53;22.50;98.10
11188;DHT22;5650;52.700;7.306;2023-07-20T12:41:20;22.50;98.00
11188;DHT22;5650;52.700;7.306;2023-07-20T12:43:47;22.60;97.80
11188;DHT22;5650;52.700;7.306;2023-07-20T12:46:15;22.50;97.40
11188;DHT22;5650;52.700;7.306;2023-07-20T12:48:42;22.50;96.90
11188;DHT22;5650;52.700;7.306;2023-07-20T12:51:10;22.50;97.60
11188;DHT22;5650;52.700;7.306;2023-07-20T12:53:39;22.60;97.70
11188;DHT22;5650;52.700;7.306;2023-07-20T12:56:06;22.70;97.50
11188;DHT22;5650;52.700;7.306;2023-07-20T12:58:33;22.80;96.80
11188;DHT22;5650;52.700;7.306;2023-07-20T13:01:02;22.90;95.70
11188;DHT22;5650;52.700;7.306;2023-07-20T13:03:29;22.90;95.60
11188;DHT22;5650;52.700;7.306;2023-07-20T13:05:56;23.00;95.20
11188;DHT22;5650;52.700;7.306;2023-07-20T13:08:24;23.10;94.70
11188;DHT22;5650;52.700;7.306;2023-07-20T13:10:54;23.30;94.50
11188;DHT22;5650;52.700;7.306;2023-07-20T13:13:21;23.40;94.10
11188;DHT22;5650;52.700;7.306;2023-07-20T13:15:48;23.60;93.20
11188;DHT22;5650;52.700;7.306;2023-07-20T13:18:15;23.60;93.30
11188;DHT22;5650;52.700;7.306;2023-07-20T13:20:44;23.70;93.40
11188;DHT22;5650;52.700;7.306;2023-07-20T13:23:11;23.70;92.00
11188;DHT22;5650;52.700;7.306;2023-07-20T13:25:38;23.60;91.30
11188;DHT22;5650;52.700;7.306;2023-07-20T13:28:07;23.50;90.70
11188;DHT22;5650;52.700;7.306;2023-07-20T13:30:34;23.40;90.20
11188;DHT22;5650;52.700;7.306;2023-07-20T13:33:01;23.40;88.80
11188;DHT22;5650;52.700;7.306;2023-07-20T13:35:29;23.40;89.10
11188;DHT22;5650;52.700;7.306;2023-07-20T13:37:56;23.50;89.10
11188;DHT22;5650;52.700;7.306;2023-07-20T13:40:23;23.50;88.70
11188;DHT22;5650;52.700;7.306;2023-07-20T13:42:50;23.60;88.10
11188;DHT22;5650;52.700;7.306;2023-07-20T13:45:19;23.70;87.00
11188;DHT22;5650;52.700;7.306;2023-07-20T13:47:46;23.70;83.80
11188;DHT22;5650;52.700;7.306;2023-07-20T13:50:13;23.60;82.40
11188;DHT22;5650;52.700;7.306;2023-07-20T13:52:40;23.70;84.30
11188;DHT22;5650;52.700;7.306;2023-07-20T13:55:08;23.80;85.10
11188;DHT22;5650;52.700;7.306;2023-07-20T13:57:35;23.90;84.10
11188;DHT22;5650;52.700;7.306;2023-07-20T14:00:03;23.80;82.20
11188;DHT22;5650;52.700;7.306;2023-07-20T14:02:32;23.80;82.50
11188;DHT22;5650;52.700;7.306;2023-07-20T14:04:59;23.70;82.30
11188;DHT22;5650;52.700;7.306;2023-07-20T14:07:26;23.50;83.30
11188;DHT22;5650;52.700;7.306;2023-07-20T14:09:53;23.40;85.00
11188;DHT22;5650;52.700;7.306;2023-07-20T14:12:20;23.40;85.80
11188;DHT22;5650;52.700;7.306;2023-07-20T14:14:48;23.40;86.00
11188;DHT22;5650;52.700;7.306;2023-07-20T14:17:15;23.50;86.40
11188;DHT22;5650;52.700;7.306;2023-07-20T14:19:43;23.50;85.20
11188;DHT22;5650;52.700;7.306;2023-07-20T14:22:12;23.60;86.20
11188;DHT22;5650;52.700;7.306;2023-07-20T14:24:39;23.60;83.90
11188;DHT22;5650;52.700;7.306;2023-07-20T14:27:06;23.60;85.10
11188;DHT22;5650;52.700;7.306;2023-07-20T14:29:34;23.70;85.50
11188;DHT22;5650;52.700;7.306;2023-07-20T14:32:02;23.90;85.60
11188;DHT22;5650;52.700;7.306;2023-07-20T14:34:29;24.00;87.30
11188;DHT22;5650;52.700;7.306;2023-07-20T14:36:59;24.10;86.40
11188;DHT22;5650;52.700;7.306;2023-07-20T14:39:26;23.90;90.50
11188;DHT22;5650;52.700;7.306;2023-07-20T14:41:53;23.80;90.90
11188;DHT22;5650;52.700;7.306;2023-07-20T14:44:21;23.70;91.40
11188;DHT22;5650;52.700;7.306;2023-07-20T14:46:48;23.50;91.40
11188;DHT22;5650;52.700;7.306;2023-07-20T14:49:15;23.20;92.00
11188;DHT22;5650;52.700;7.306;2023-07-20T14:51:43;23.00;92.40
11188;DHT22;5650;52.700;7.306;2023-07-20T14:54:14;22.90;92.60
11188;DHT22;5650;52.700;7.306;2023-07-20T14:56:49;22.70;93.00
11188;DHT22;5650;52.700;7.306;2023-07-20T14:59:16;22.30;93.60
11188;DHT22;5650;52.700;7.306;2023-07-20T15:01:44;22.00;94.40
11188;DHT22;5650;52.700;7.306;2023-07-20T15:04:12;21.80;95.20
11188;DHT22;5650;52.700;7.306;2023-07-20T15:06:39;21.70;95.20
11188;DHT22;5650;52.700;7.306;2023-07-20T15:09:07;21.50;95.30
11188;DHT22;5650;52.700;7.306;2023-07-20T15:11:36;21.40;95.90
11188;DHT22;5650;52.700;7.306;2023-07-20T15:14:04;21.30;95.90
11188;DHT22;5650;52.700;7.306;2023-07-20T15:16:31;21.20;96.20
11188;DHT22;5650;52.700;7.306;2023-07-20T15:18:58;21.10;97.30
11188;DHT22;5650;52.700;7.306;2023-07-20T15:21:25;20.90;98.60
11188;DHT22;5650;52.700;7.306;2023-07-20T15:23:56;20.80;99.90
11188;DHT22;5650;52.700;7.306;2023-07-20T15:26:23;20.60;99.90
11188;DHT22;5650;52.700;7.306;2023-07-20T15:28:52;20.50;99.90
11188;DHT22;5650;52.700;7.306;2023-07-20T15:31:19;20.60;99.90
11188;DHT22;5650;52.700;7.306;2023-07-20T15:33:47;20.60;99.90
11188;DHT22;5650;52.700;7.306;2023-07-20T15:36:14;20.70;99.90
11188;DHT22;5650;52.700;7.306;2023-07-20T15:38:41;20.80;99.90
11188;DHT22;5650;52.700;7.306;2023-07-20T15:41:08;20.80;99.90
11188;DHT22;5650;52.700;7.306;2023-07-20T15:43:36;20.80;99.90
11188;DHT22;5650;52.700;7.306;2023-07-20T15:46:45;20.90;99.90
11188;DHT22;5650;52.700;7.306;2023-07-20T15:49:13;21.00;99.90
11188;DHT22;5650;52.700;7.306;2023-07-20T15:51:40;21.10;99.90
11188;DHT22;5650;52.700;7.306;2023-07-20T15:54:09;21.10;99.70
11188;DHT22;5650;52.700;7.306;2023-07-20T15:56:37;21.00;99.50
11188;DHT22;5650;52.700;7.306;2023-07-20T15:59:05;21.00;99.90
11188;DHT22;5650;52.700;7.306;2023-07-20T16:01:34;21.00;99.80
11188;DHT22;5650;52.700;7.306;2023-07-20T16:04:01;20.90;99.90
11188;DHT22;5650;52.700;7.306;2023-07-20T16:06:30;21.00;99.90